createdAt,value
2019-03-02T00:00:14.337Z,92.7
2019-03-02T00:01:14.598Z,92.6
2019-03-02T00:02:14.868Z,92.6
2019-03-02T00:03:14.136Z,92.8
2019-03-02T00:04:14.411Z,92.8
2019-03-02T00:05:14.678Z,92.8
2019-03-02T00:06:14.944Z,92.9
2019-03-02T00:07:14.285Z,93.0
2019-03-02T00:08:14.549Z,93.0
2019-03-02T00:09:14.821Z,92.9
2019-03-02T00:10:14.106Z,93.1
2019-03-02T00:11:14.162Z,92.9
2019-03-02T00:12:14.425Z,92.8
2019-03-02T00:13:14.697Z,92.8
2019-03-02T00:14:19.113Z,93.2
2019-03-02T00:15:14.820Z,93.2
2019-03-02T00:16:14.085Z,93.0
2019-03-02T00:17:18.984Z,93.2
2019-03-02T00:18:14.551Z,93.1
2019-03-02T00:19:14.816Z,92.8
2019-03-02T00:20:18.036Z,92.7
2019-03-02T00:21:14.243Z,92.7
2019-03-02T00:22:14.513Z,92.8
2019-03-02T00:23:18.757Z,92.9
2019-03-02T00:24:14.198Z,92.7
2019-03-02T00:25:14.869Z,92.8
2019-03-02T00:26:14.144Z,92.8
2019-03-02T00:27:14.416Z,92.6
2019-03-02T00:28:14.749Z,92.9
2019-03-02T00:29:15.020Z,92.7
2019-03-02T00:30:21.022Z,92.7
2019-03-02T00:31:14.354Z,92.6
2019-03-02T00:32:14.624Z,92.7
2019-03-02T00:33:19.791Z,92.6
2019-03-02T00:34:14.159Z,92.6
2019-03-02T00:35:14.441Z,92.6
2019-03-02T00:36:19.363Z,92.7
2019-03-02T00:37:14.715Z,92.6
2019-03-02T00:38:14.980Z,92.6
2019-03-02T00:39:19.001Z,92.7
2019-03-02T00:40:14.509Z,92.7
2019-03-02T00:41:14.552Z,92.8
2019-03-02T00:42:17.909Z,92.9
2019-03-02T00:43:14.185Z,92.7
2019-03-02T00:44:14.462Z,92.7
2019-03-02T00:45:15.631Z,92.6
2019-03-02T00:46:14.917Z,92.8
2019-03-02T00:47:14.185Z,92.8
2019-03-02T00:48:14.453Z,92.7
2019-03-02T00:49:14.725Z,92.7
2019-03-02T00:50:14.984Z,92.7
2019-03-02T00:51:14.077Z,92.8
2019-03-02T00:52:14.372Z,92.9
2019-03-02T00:53:14.635Z,93.0
2019-03-02T00:54:14.897Z,93.2
2019-03-02T00:55:14.167Z,93.2
2019-03-02T00:56:14.436Z,93.2
2019-03-02T00:57:19.553Z,93.2
2019-03-02T00:58:14.921Z,93.4
2019-03-02T00:59:14.191Z,93.2
2019-03-02T01:00:16.428Z,93.3
2019-03-02T01:01:14.522Z,93.2
2019-03-02T01:02:14.788Z,93.2
2019-03-02T01:03:16.873Z,93.1
2019-03-02T01:04:14.211Z,93.2
2019-03-02T01:05:14.532Z,93.3
2019-03-02T01:06:14.762Z,93.5
2019-03-02T01:07:14.058Z,93.4
2019-03-02T01:08:14.594Z,93.5
2019-03-02T01:09:14.874Z,93.4
2019-03-02T01:10:14.143Z,93.5
2019-03-02T01:11:14.216Z,93.5
2019-03-02T01:12:14.492Z,93.3
2019-03-02T01:13:19.780Z,93.4
2019-03-02T01:14:14.046Z,93.3
2019-03-02T01:15:14.304Z,93.6
2019-03-02T01:16:19.879Z,93.4
2019-03-02T01:17:14.222Z,93.6
2019-03-02T01:18:14.487Z,93.7
2019-03-02T01:19:18.447Z,93.5
2019-03-02T01:20:14.802Z,93.6
2019-03-02T01:21:14.879Z,93.3
2019-03-02T01:22:17.418Z,93.5
2019-03-02T01:23:14.773Z,93.5
2019-03-02T01:24:14.060Z,93.5
2019-03-02T01:25:14.619Z,93.4
2019-03-02T01:26:14.910Z,93.7
2019-03-02T01:27:14.168Z,93.7
2019-03-02T01:28:14.427Z,93.7
2019-03-02T01:29:18.939Z,93.5
2019-03-02T01:30:14.322Z,93.4
2019-03-02T01:31:14.348Z,93.4
2019-03-02T01:32:17.450Z,93.4
2019-03-02T01:33:14.762Z,93.5
2019-03-02T01:34:14.028Z,93.4
2019-03-02T01:35:19.939Z,93.4
2019-03-02T01:36:14.354Z,93.4
2019-03-02T01:37:14.623Z,93.3
2019-03-02T01:38:18.541Z,93.4
2019-03-02T01:39:14.945Z,93.4
2019-03-02T01:40:14.210Z,93.4
2019-03-02T01:41:19.057Z,93.5
2019-03-02T01:42:14.382Z,93.4
2019-03-02T01:43:14.648Z,93.5
2019-03-02T01:44:17.494Z,93.5
2019-03-02T01:45:14.844Z,93.6
2019-03-02T01:46:14.106Z,93.6
2019-03-02T01:47:17.018Z,93.8
2019-03-02T01:48:14.316Z,93.8
2019-03-02T01:49:14.581Z,93.8
2019-03-02T01:50:14.850Z,93.9
2019-03-02T01:51:14.964Z,94.0
2019-03-02T01:52:14.230Z,94.2
2019-03-02T01:53:14.496Z,94.2
2019-03-02T01:54:21.211Z,94.2
2019-03-02T01:55:14.632Z,94.2
2019-03-02T01:56:14.896Z,94.3
2019-03-02T01:57:17.918Z,94.3
2019-03-02T01:58:14.211Z,94.2
2019-03-02T01:59:14.487Z,94.3
2019-03-02T02:00:14.777Z,94.3
2019-03-02T02:01:14.832Z,94.2
2019-03-02T02:02:14.100Z,94.2
2019-03-02T02:03:14.368Z,94.3
2019-03-02T02:04:14.633Z,94.3
2019-03-02T02:05:14.906Z,94.0
2019-03-02T02:06:14.168Z,93.8
2019-03-02T02:07:19.117Z,93.8
2019-03-02T02:08:14.432Z,94.0
2019-03-02T02:09:14.704Z,93.9
2019-03-02T02:10:14.999Z,93.7
2019-03-02T02:11:17.992Z,93.5
2019-03-02T02:12:14.450Z,93.1
2019-03-02T02:13:14.724Z,93.2
2019-03-02T02:14:19.749Z,93.1
2019-03-02T02:15:14.046Z,92.9
2019-03-02T02:16:14.326Z,93.1
2019-03-02T02:17:18.532Z,93.0
2019-03-02T02:18:14.836Z,93.0
2019-03-02T02:19:14.100Z,92.8
2019-03-02T02:20:15.523Z,92.9
2019-03-02T02:21:14.450Z,93.0
2019-03-02T02:22:14.713Z,93.2
2019-03-02T02:23:14.975Z,93.1
2019-03-02T02:24:14.244Z,92.9
2019-03-02T02:25:14.519Z,92.7
2019-03-02T02:26:15.080Z,92.2
2019-03-02T02:27:14.359Z,92.6
2019-03-02T02:28:14.707Z,92.2
2019-03-02T02:29:14.989Z,92.0
2019-03-02T02:30:26.628Z,91.8
2019-03-02T02:31:14.181Z,91.5
2019-03-02T02:32:23.913Z,91.1
2019-03-02T02:33:14.465Z,90.5
2019-03-02T02:34:23.408Z,90.8
2019-03-02T02:35:14.856Z,90.7
2019-03-02T02:36:20.325Z,90.7
2019-03-02T02:37:14.693Z,90.7
2019-03-02T02:38:17.637Z,90.8
2019-03-02T02:39:14.973Z,90.3
2019-03-02T02:40:14.280Z,90.5
2019-03-02T02:41:24.466Z,90.5
2019-03-02T02:42:14.116Z,90.6
2019-03-02T02:43:20.891Z,90.6
2019-03-02T02:44:14.390Z,90.5
2019-03-02T02:45:16.560Z,90.5
2019-03-02T02:46:14.105Z,90.5
2019-03-02T02:47:14.415Z,90.5
2019-03-02T02:48:14.700Z,90.5
2019-03-02T02:49:14.982Z,90.5
2019-03-02T02:50:14.273Z,90.6
2019-03-02T02:51:14.316Z,90.6
2019-03-02T02:52:14.599Z,90.2
2019-03-02T02:53:14.905Z,90.0
2019-03-02T02:54:14.192Z,89.8
2019-03-02T02:55:14.497Z,89.7
2019-03-02T02:56:21.347Z,89.7
2019-03-02T02:57:14.728Z,89.6
2019-03-02T02:58:19.334Z,89.6
2019-03-02T02:59:14.786Z,89.7
2019-03-02T03:00:17.739Z,89.7
2019-03-02T03:01:14.196Z,89.7
2019-03-02T03:02:14.477Z,89.8
2019-03-02T03:03:20.976Z,89.7
2019-03-02T03:04:14.418Z,89.9
2019-03-02T03:05:17.189Z,89.8
2019-03-02T03:06:14.694Z,89.8
2019-03-02T03:07:14.991Z,89.6
2019-03-02T03:08:14.259Z,89.5
2019-03-02T03:09:14.529Z,89.3
2019-03-02T03:10:14.816Z,89.7
2019-03-02T03:11:14.883Z,89.5
2019-03-02T03:12:22.578Z,89.9
2019-03-02T03:13:15.007Z,89.8
2019-03-02T03:14:20.039Z,89.7
2019-03-02T03:15:14.408Z,89.6
2019-03-02T03:16:17.992Z,89.5
2019-03-02T03:17:14.354Z,89.6
2019-03-02T03:18:15.416Z,89.5
2019-03-02T03:19:14.740Z,89.5
2019-03-02T03:20:15.013Z,89.6
2019-03-02T03:21:14.094Z,89.8
2019-03-02T03:22:14.367Z,89.8
2019-03-02T03:23:14.634Z,89.8
2019-03-02T03:24:14.915Z,89.8
2019-03-02T03:25:19.274Z,89.8
2019-03-02T03:26:14.694Z,89.8
2019-03-02T03:27:14.959Z,89.6
2019-03-02T03:28:14.265Z,89.5
2019-03-02T03:29:14.534Z,89.8
2019-03-02T03:30:14.820Z,89.8
2019-03-02T03:31:25.745Z,89.8
2019-03-02T03:32:14.492Z,90.0
2019-03-02T03:33:14.805Z,89.9
2019-03-02T03:34:14.087Z,90.0
2019-03-02T03:35:19.611Z,89.8
2019-03-02T03:36:14.369Z,89.8
2019-03-02T03:37:15.134Z,89.9
2019-03-02T03:38:14.408Z,89.8
2019-03-02T03:39:14.680Z,89.8
2019-03-02T03:40:14.965Z,89.7
2019-03-02T03:41:15.005Z,89.5
2019-03-02T03:42:24.524Z,89.6
2019-03-02T03:43:14.925Z,89.4
2019-03-02T03:44:25.962Z,89.5
2019-03-02T03:45:14.654Z,90.0
2019-03-02T03:46:22.253Z,89.6
2019-03-02T03:47:14.894Z,89.6
2019-03-02T03:48:19.311Z,89.4
2019-03-02T03:49:14.699Z,89.3
2019-03-02T03:50:15.950Z,89.2
2019-03-02T03:51:14.053Z,89.2
2019-03-02T03:52:14.342Z,89.2
2019-03-02T03:53:14.612Z,89.0
2019-03-02T03:54:14.888Z,89.0
2019-03-02T03:55:14.167Z,89.0
2019-03-02T03:56:14.719Z,88.9
2019-03-02T03:57:21.393Z,89.0
2019-03-02T03:58:14.886Z,89.2
2019-03-02T03:59:20.478Z,89.1
2019-03-02T04:00:14.872Z,89.4
2019-03-02T04:01:19.191Z,88.8
2019-03-02T04:02:14.538Z,88.8
2019-03-02T04:03:15.120Z,88.7
2019-03-02T04:04:14.405Z,88.7
2019-03-02T04:05:14.680Z,88.7
2019-03-02T04:06:14.960Z,88.8
2019-03-02T04:07:14.229Z,88.8
2019-03-02T04:08:14.514Z,89.2
2019-03-02T04:09:14.775Z,89.1
2019-03-02T04:10:14.110Z,89.3
2019-03-02T04:11:14.116Z,89.4
2019-03-02T04:12:14.400Z,89.2
2019-03-02T04:13:14.701Z,89.1
2019-03-02T04:14:23.255Z,89.2
2019-03-02T04:15:14.953Z,89.0
2019-03-02T04:16:20.843Z,89.1
2019-03-02T04:17:14.773Z,89.0
2019-03-02T04:18:17.573Z,89.1
2019-03-02T04:19:14.875Z,88.8
2019-03-02T04:20:14.137Z,89.1
2019-03-02T04:21:14.250Z,89.4
2019-03-02T04:22:14.527Z,88.8
2019-03-02T04:23:21.980Z,88.8
2019-03-02T04:24:14.501Z,88.9
2019-03-02T04:25:19.551Z,88.8
2019-03-02T04:26:14.975Z,89.0
2019-03-02T04:27:17.065Z,89.0
2019-03-02T04:28:14.487Z,89.0
2019-03-02T04:29:14.771Z,89.3
2019-03-02T04:30:14.076Z,89.2
2019-03-02T04:31:14.189Z,88.9
2019-03-02T04:32:14.453Z,88.9
2019-03-02T04:33:14.732Z,89.0
2019-03-02T04:34:22.499Z,89.2
2019-03-02T04:35:14.059Z,89.1
2019-03-02T04:36:14.337Z,89.0
2019-03-02T04:37:14.604Z,89.0
2019-03-02T04:38:14.875Z,89.1
2019-03-02T04:39:15.135Z,89.5
2019-03-02T04:40:14.430Z,89.9
2019-03-02T04:41:14.485Z,89.6
2019-03-02T04:42:15.525Z,89.2
2019-03-02T04:43:14.796Z,89.2
2019-03-02T04:44:14.065Z,89.1
2019-03-02T04:45:14.353Z,89.3
2019-03-02T04:46:16.680Z,89.4
2019-03-02T04:47:15.014Z,89.8
2019-03-02T04:48:14.278Z,89.7
2019-03-02T04:49:15.627Z,89.4
2019-03-02T04:50:14.912Z,89.6
2019-03-02T04:51:14.956Z,89.5
2019-03-02T04:52:15.400Z,89.6
2019-03-02T04:53:16.682Z,89.6
2019-03-02T04:54:14.960Z,89.7
2019-03-02T04:55:14.903Z,89.7
2019-03-02T04:56:14.173Z,89.7
2019-03-02T04:57:14.445Z,89.8
2019-03-02T04:58:14.722Z,89.5
2019-03-02T04:59:14.985Z,89.6
2019-03-02T05:00:14.287Z,89.5
2019-03-02T05:01:14.377Z,89.7
2019-03-02T05:02:19.582Z,89.8
2019-03-02T05:03:15.004Z,89.8
2019-03-02T05:04:14.268Z,89.8
2019-03-02T05:05:14.540Z,90.0
2019-03-02T05:06:18.859Z,90.2
2019-03-02T05:07:14.279Z,90.1
2019-03-02T05:08:14.546Z,90.1
2019-03-02T05:09:17.895Z,89.9
2019-03-02T05:10:14.195Z,90.1
2019-03-02T05:11:14.242Z,90.2
2019-03-02T05:12:15.576Z,90.0
2019-03-02T05:13:14.882Z,89.8
2019-03-02T05:14:14.153Z,90.0
2019-03-02T05:15:17.557Z,90.2
2019-03-02T05:16:14.890Z,90.0
2019-03-02T05:17:14.204Z,90.6
2019-03-02T05:18:18.083Z,90.5
2019-03-02T05:19:14.440Z,90.2
2019-03-02T05:20:14.710Z,90.1
2019-03-02T05:21:14.769Z,90.2
2019-03-02T05:22:18.694Z,90.2
2019-03-02T05:23:14.139Z,90.3
2019-03-02T05:24:14.410Z,90.2
2019-03-02T05:25:18.966Z,90.1
2019-03-02T05:26:14.315Z,90.1
2019-03-02T05:27:14.586Z,90.1
2019-03-02T05:28:14.858Z,90.0
2019-03-02T05:29:17.634Z,90.1
2019-03-02T05:30:14.033Z,90.2
2019-03-02T05:31:14.110Z,90.2
2019-03-02T05:32:16.763Z,90.2
2019-03-02T05:33:14.072Z,90.5
2019-03-02T05:34:14.340Z,90.3
2019-03-02T05:35:16.663Z,90.1
2019-03-02T05:36:14.044Z,90.2
2019-03-02T05:37:14.310Z,90.0
2019-03-02T05:38:16.072Z,90.1
2019-03-02T05:39:18.050Z,90.2
2019-03-02T05:40:14.396Z,90.3
2019-03-02T05:41:14.748Z,90.3
2019-03-02T05:42:15.014Z,90.4
2019-03-02T05:43:14.282Z,90.2
2019-03-02T05:44:14.545Z,90.1
2019-03-02T05:45:14.824Z,89.9
2019-03-02T05:46:14.098Z,90.2
2019-03-02T05:47:14.386Z,90.2
2019-03-02T05:48:14.678Z,90.2
2019-03-02T05:49:18.486Z,90.2
2019-03-02T05:50:14.916Z,90.2
2019-03-02T05:51:14.966Z,90.1
2019-03-02T05:52:17.721Z,90.5
2019-03-02T05:53:14.188Z,90.2
2019-03-02T05:54:14.453Z,90.2
2019-03-02T05:55:19.018Z,90.2
2019-03-02T05:56:14.370Z,90.1
2019-03-02T05:57:14.642Z,89.9
2019-03-02T05:58:17.124Z,90.1
2019-03-02T05:59:14.438Z,90.3
2019-03-02T06:00:14.713Z,90.2
2019-03-02T06:01:14.797Z,90.0
2019-03-02T06:02:18.175Z,90.2
2019-03-02T06:03:14.533Z,90.0
2019-03-02T06:04:14.820Z,90.2
2019-03-02T06:05:14.106Z,90.0
2019-03-02T06:06:14.379Z,89.8
2019-03-02T06:07:14.652Z,89.8
2019-03-02T06:08:14.921Z,89.8
2019-03-02T06:09:14.940Z,90.0
2019-03-02T06:10:14.261Z,89.8
2019-03-02T06:11:14.272Z,89.7
2019-03-02T06:12:16.391Z,89.8
2019-03-02T06:13:14.677Z,89.9
2019-03-02T06:14:14.943Z,89.8
2019-03-02T06:15:14.221Z,89.8
2019-03-02T06:16:15.441Z,89.7
2019-03-02T06:17:14.702Z,89.7
2019-03-02T06:18:14.969Z,89.7
2019-03-02T06:19:23.209Z,89.7
2019-03-02T06:20:14.605Z,89.7
2019-03-02T06:21:14.676Z,89.6
2019-03-02T06:22:21.025Z,89.7
2019-03-02T06:23:14.327Z,89.8
2019-03-02T06:24:15.621Z,89.7
2019-03-02T06:25:22.870Z,89.8
2019-03-02T06:26:14.297Z,89.8
2019-03-02T06:27:14.576Z,89.7
2019-03-02T06:28:14.833Z,89.5
2019-03-02T06:29:14.101Z,89.6
2019-03-02T06:30:14.396Z,89.7
2019-03-02T06:31:19.045Z,89.6
2019-03-02T06:32:14.602Z,89.6
2019-03-02T06:33:14.865Z,89.7
2019-03-02T06:34:19.637Z,89.6
2019-03-02T06:35:14.126Z,89.4
2019-03-02T06:36:14.400Z,89.3
2019-03-02T06:37:19.893Z,89.3
2019-03-02T06:38:14.360Z,89.6
2019-03-02T06:39:14.624Z,89.6
2019-03-02T06:40:19.698Z,89.5
2019-03-02T06:41:14.959Z,89.7
2019-03-02T06:42:14.237Z,89.4
2019-03-02T06:43:21.696Z,89.5
2019-03-02T06:44:15.017Z,89.7
2019-03-02T06:45:14.316Z,89.5
2019-03-02T06:46:19.698Z,89.5
2019-03-02T06:47:14.177Z,89.5
2019-03-02T06:48:14.440Z,89.8
2019-03-02T06:49:19.996Z,89.8
2019-03-02T06:50:14.386Z,90.2
2019-03-02T06:51:14.471Z,90.0
2019-03-02T06:52:14.738Z,89.9
2019-03-02T06:53:15.008Z,90.0
2019-03-02T06:54:14.301Z,90.0
2019-03-02T06:55:14.573Z,90.4
2019-03-02T06:56:15.926Z,90.0
2019-03-02T06:57:15.124Z,89.9
2019-03-02T06:58:14.427Z,89.7
2019-03-02T06:59:14.691Z,89.7
2019-03-02T07:00:15.059Z,89.6
2019-03-02T07:01:15.022Z,89.8
2019-03-02T07:02:14.285Z,90.2
2019-03-02T07:03:14.556Z,90.5
2019-03-02T07:04:22.864Z,90.8
2019-03-02T07:05:14.320Z,90.6
2019-03-02T07:06:14.613Z,90.7
2019-03-02T07:07:14.890Z,90.7
2019-03-02T07:08:14.159Z,91.1
2019-03-02T07:09:14.442Z,90.8
2019-03-02T07:10:21.409Z,91.2
2019-03-02T07:11:14.772Z,91.4
2019-03-02T07:12:14.060Z,91.3
2019-03-02T07:13:14.335Z,91.2
2019-03-02T07:14:16.292Z,91.5
2019-03-02T07:15:14.564Z,91.7
2019-03-02T07:16:20.140Z,91.8
2019-03-02T07:17:14.053Z,91.5
2019-03-02T07:18:14.333Z,91.3
2019-03-02T07:19:17.601Z,91.7
2019-03-02T07:20:14.912Z,91.7
2019-03-02T07:21:14.970Z,91.7
2019-03-02T07:22:17.938Z,91.6
2019-03-02T07:23:14.289Z,91.5
2019-03-02T07:24:14.558Z,91.4
2019-03-02T07:25:14.837Z,91.3
2019-03-02T07:26:19.563Z,91.1
2019-03-02T07:27:14.948Z,91.3
2019-03-02T07:28:14.234Z,91.2
2019-03-02T07:29:18.749Z,91.5
2019-03-02T07:30:14.052Z,91.8
2019-03-02T07:31:14.126Z,91.7
2019-03-02T07:32:14.398Z,91.8
2019-03-02T07:33:14.662Z,91.9
2019-03-02T07:34:14.938Z,91.6
2019-03-02T07:35:19.243Z,91.3
2019-03-02T07:36:14.693Z,91.0
2019-03-02T07:37:14.953Z,90.9
2019-03-02T07:38:20.184Z,90.8
2019-03-02T07:39:14.602Z,90.8
2019-03-02T07:40:14.889Z,90.6
2019-03-02T07:41:14.944Z,90.2
2019-03-02T07:42:14.218Z,90.4
2019-03-02T07:43:14.489Z,90.3
2019-03-02T07:44:14.759Z,90.3
2019-03-02T07:45:14.031Z,89.9
2019-03-02T07:46:14.300Z,90.5
2019-03-02T07:47:14.572Z,90.2
2019-03-02T07:48:14.850Z,90.0
2019-03-02T07:49:14.434Z,89.5
2019-03-02T07:50:14.722Z,90.1
2019-03-02T07:51:14.777Z,89.3
2019-03-02T07:52:18.515Z,89.2
2019-03-02T07:53:14.869Z,89.7
2019-03-02T07:54:14.159Z,89.7
2019-03-02T07:55:18.702Z,89.5
2019-03-02T07:56:14.503Z,89.2
2019-03-02T07:57:14.772Z,89.0
2019-03-02T07:58:19.615Z,89.5
2019-03-02T07:59:14.089Z,89.5
2019-03-02T08:00:14.393Z,89.0
2019-03-02T08:01:17.786Z,89.0
2019-03-02T08:02:14.107Z,89.1
2019-03-02T08:03:14.392Z,88.9
2019-03-02T08:04:16.840Z,89.3
2019-03-02T08:05:15.391Z,88.5
2019-03-02T08:06:14.687Z,88.4
2019-03-02T08:07:14.955Z,88.9
2019-03-02T08:08:15.132Z,88.8
2019-03-02T08:09:14.402Z,88.8
2019-03-02T08:10:14.695Z,88.7
2019-03-02T08:11:14.746Z,88.5
2019-03-02T08:12:15.019Z,88.4
2019-03-02T08:13:14.286Z,88.8
2019-03-02T08:14:16.248Z,88.3
2019-03-02T08:15:14.535Z,88.1
2019-03-02T08:16:14.802Z,88.2
2019-03-02T08:17:14.541Z,88.2
2019-03-02T08:18:14.810Z,88.2
2019-03-02T08:19:14.077Z,88.0
2019-03-02T08:20:16.667Z,88.2
2019-03-02T08:21:14.424Z,88.2
2019-03-02T08:22:14.684Z,87.8
2019-03-02T08:23:14.951Z,87.7
2019-03-02T08:24:14.221Z,87.7
2019-03-02T08:25:14.493Z,88.0
2019-03-02T08:26:14.778Z,87.7
2019-03-02T08:27:14.041Z,87.7
2019-03-02T08:28:14.306Z,87.7
2019-03-02T08:29:20.897Z,87.5
2019-03-02T08:30:14.475Z,87.5
2019-03-02T08:31:14.543Z,87.5
2019-03-02T08:32:20.974Z,87.8
2019-03-02T08:33:14.561Z,87.7
2019-03-02T08:34:14.842Z,87.7
2019-03-02T08:35:14.121Z,87.4
2019-03-02T08:36:18.234Z,87.5
2019-03-02T08:37:16.648Z,87.6
2019-03-02T08:38:14.923Z,86.9
2019-03-02T08:39:14.792Z,86.8
2019-03-02T08:40:14.073Z,86.9
2019-03-02T08:41:14.126Z,87.1
2019-03-02T08:42:14.441Z,87.4
2019-03-02T08:43:17.196Z,87.2
2019-03-02T08:44:18.880Z,87.2
2019-03-02T08:45:14.304Z,87.2
2019-03-02T08:46:14.575Z,87.5
2019-03-02T08:47:14.843Z,87.5
2019-03-02T08:48:14.121Z,86.8
2019-03-02T08:49:14.382Z,86.4
2019-03-02T08:50:18.655Z,86.6
2019-03-02T08:51:14.749Z,86.9
2019-03-02T08:52:14.035Z,86.4
2019-03-02T08:53:14.306Z,86.8
2019-03-02T08:54:21.464Z,86.3
2019-03-02T08:55:14.995Z,86.8
2019-03-02T08:56:14.265Z,87.2
2019-03-02T08:57:14.536Z,86.7
2019-03-02T08:58:14.831Z,86.5
2019-03-02T08:59:14.087Z,86.1
2019-03-02T09:00:14.366Z,86.4
2019-03-02T09:01:18.573Z,86.5
2019-03-02T09:02:14.121Z,86.7
2019-03-02T09:03:14.385Z,85.9
2019-03-02T09:04:15.221Z,85.7
2019-03-02T09:05:14.494Z,85.6
2019-03-02T09:06:14.764Z,85.7
2019-03-02T09:07:14.040Z,85.8
2019-03-02T09:08:14.308Z,85.8
2019-03-02T09:09:14.580Z,85.7
2019-03-02T09:10:14.879Z,85.4
2019-03-02T09:11:14.909Z,85.6
2019-03-02T09:12:14.181Z,85.0
2019-03-02T09:13:14.447Z,84.7
2019-03-02T09:14:14.722Z,85.0
2019-03-02T09:15:14.982Z,85.6
2019-03-02T09:16:14.249Z,84.9
2019-03-02T09:17:18.876Z,85.0
2019-03-02T09:18:14.200Z,84.9
2019-03-02T09:19:20.226Z,85.2
2019-03-02T09:20:14.744Z,85.1
2019-03-02T09:21:14.840Z,85.2
2019-03-02T09:22:14.122Z,85.2
2019-03-02T09:23:15.286Z,84.7
2019-03-02T09:24:14.553Z,84.3
2019-03-02T09:25:14.825Z,84.3
2019-03-02T09:26:15.119Z,84.5
2019-03-02T09:27:14.393Z,84.0
2019-03-02T09:28:14.663Z,84.2
2019-03-02T09:29:14.927Z,84.2
2019-03-02T09:30:14.224Z,84.1
2019-03-02T09:31:14.281Z,84.2
2019-03-02T09:32:15.240Z,83.8
2019-03-02T09:33:14.503Z,84.1
2019-03-02T09:34:14.766Z,84.0
2019-03-02T09:35:17.220Z,83.7
2019-03-02T09:36:14.560Z,83.8
2019-03-02T09:37:14.828Z,83.7
2019-03-02T09:38:20.749Z,83.8
2019-03-02T09:39:14.120Z,83.5
2019-03-02T09:40:14.600Z,84.1
2019-03-02T09:41:14.461Z,83.7
2019-03-02T09:42:14.724Z,83.5
2019-03-02T09:43:17.144Z,83.7
2019-03-02T09:44:14.508Z,83.7
2019-03-02T09:45:14.768Z,83.4
2019-03-02T09:46:14.058Z,83.1
2019-03-02T09:47:14.336Z,83.6
2019-03-02T09:48:14.611Z,83.8
2019-03-02T09:49:14.875Z,83.5
2019-03-02T09:50:14.585Z,83.5
2019-03-02T09:51:14.533Z,83.2
2019-03-02T09:52:14.807Z,83.4
2019-03-02T09:53:14.083Z,83.6
2019-03-02T09:54:14.350Z,83.4
2019-03-02T09:55:18.176Z,83.7
2019-03-02T09:56:16.235Z,83.3
2019-03-02T09:57:14.551Z,83.8
2019-03-02T09:58:14.823Z,83.2
2019-03-02T09:59:14.088Z,83.0
2019-03-02T10:00:14.364Z,84.3
2019-03-02T10:01:15.660Z,83.7
2019-03-02T10:02:15.781Z,83.0
2019-03-02T10:03:14.059Z,83.2
2019-03-02T10:04:14.325Z,82.8
2019-03-02T10:05:15.599Z,82.6
2019-03-02T10:06:14.868Z,82.6
2019-03-02T10:07:14.144Z,82.4
2019-03-02T10:08:14.422Z,82.6
2019-03-02T10:09:14.702Z,82.5
2019-03-02T10:10:14.989Z,82.6
2019-03-02T10:11:14.058Z,82.3
2019-03-02T10:12:15.260Z,82.5
2019-03-02T10:13:14.521Z,82.3
2019-03-02T10:14:14.790Z,82.7
2019-03-02T10:15:14.072Z,82.5
2019-03-02T10:16:14.333Z,82.8
2019-03-02T10:17:14.614Z,83.1
2019-03-02T10:18:14.966Z,82.8
2019-03-02T10:19:14.235Z,83.0
2019-03-02T10:20:14.519Z,82.9
2019-03-02T10:21:14.563Z,83.2
2019-03-02T10:22:14.838Z,82.9
2019-03-02T10:23:14.098Z,83.1
2019-03-02T10:24:17.993Z,83.4
2019-03-02T10:25:14.291Z,83.7
2019-03-02T10:26:14.558Z,83.8
2019-03-02T10:27:20.987Z,83.3
2019-03-02T10:28:14.453Z,83.8
2019-03-02T10:29:14.711Z,83.8
2019-03-02T10:30:14.998Z,84.1
2019-03-02T10:31:14.058Z,83.8
2019-03-02T10:32:14.326Z,83.7
2019-03-02T10:33:14.627Z,84.1
2019-03-02T10:34:14.888Z,83.8
2019-03-02T10:35:18.134Z,83.8
2019-03-02T10:36:14.447Z,83.8
2019-03-02T10:37:14.726Z,83.7
2019-03-02T10:38:20.046Z,83.7
2019-03-02T10:39:14.394Z,84.1
2019-03-02T10:40:14.664Z,84.0
2019-03-02T10:41:20.281Z,84.8
2019-03-02T10:42:14.639Z,84.1
2019-03-02T10:43:14.901Z,84.5
2019-03-02T10:44:14.172Z,84.7
2019-03-02T10:45:14.452Z,84.2
2019-03-02T10:46:14.725Z,84.3
2019-03-02T10:47:15.186Z,84.3
2019-03-02T10:48:14.457Z,85.0
2019-03-02T10:49:14.742Z,84.7
2019-03-02T10:50:15.009Z,84.9
2019-03-02T10:51:14.074Z,84.6
2019-03-02T10:52:14.604Z,84.3
2019-03-02T10:53:14.859Z,84.3
2019-03-02T10:54:14.131Z,84.7
2019-03-02T10:55:14.416Z,85.0
2019-03-02T10:56:14.681Z,84.9
2019-03-02T10:57:14.948Z,85.3
2019-03-02T10:58:14.227Z,85.7
2019-03-02T10:59:16.428Z,86.1
2019-03-02T11:00:14.773Z,85.8
2019-03-02T11:01:14.842Z,85.4
2019-03-02T11:02:19.992Z,85.4
2019-03-02T11:03:14.395Z,85.7
2019-03-02T11:04:14.680Z,86.0
2019-03-02T11:05:20.054Z,85.7
2019-03-02T11:06:14.429Z,85.8
2019-03-02T11:07:14.707Z,85.8
2019-03-02T11:08:14.976Z,86.1
2019-03-02T11:09:22.726Z,86.4
2019-03-02T11:10:17.422Z,87.0
2019-03-02T11:11:14.110Z,86.8
2019-03-02T11:12:14.388Z,87.4
2019-03-02T11:13:19.154Z,88.0
2019-03-02T11:14:14.817Z,88.5
2019-03-02T11:15:14.092Z,89.2
2019-03-02T11:16:14.352Z,89.0
2019-03-02T11:17:14.636Z,88.9
2019-03-02T11:18:14.907Z,89.5
2019-03-02T11:19:14.168Z,89.8
2019-03-02T11:20:14.439Z,89.8
2019-03-02T11:21:14.793Z,89.2
2019-03-02T11:22:16.632Z,89.2
2019-03-02T11:23:19.571Z,89.2
2019-03-02T11:24:14.998Z,89.2
2019-03-02T11:25:14.267Z,89.4
2019-03-02T11:26:14.535Z,88.8
2019-03-02T11:27:14.806Z,88.9
2019-03-02T11:28:14.070Z,89.0
2019-03-02T11:29:14.342Z,89.1
2019-03-02T11:30:14.815Z,89.1
2019-03-02T11:31:14.876Z,88.9
2019-03-02T11:32:20.254Z,88.8
2019-03-02T11:33:14.626Z,88.9
2019-03-02T11:34:14.889Z,89.5
2019-03-02T11:35:14.153Z,88.9
2019-03-02T11:36:15.235Z,88.2
2019-03-02T11:37:14.504Z,88.5
2019-03-02T11:38:14.766Z,88.5
2019-03-02T11:39:18.172Z,88.6
2019-03-02T11:40:14.501Z,88.3
2019-03-02T11:41:14.549Z,88.3
2019-03-02T11:42:15.062Z,88.4
2019-03-02T11:43:17.191Z,89.0
2019-03-02T11:44:14.537Z,88.8
2019-03-02T11:45:14.829Z,88.9
2019-03-02T11:46:14.095Z,89.2
2019-03-02T11:47:14.370Z,88.8
2019-03-02T11:48:17.520Z,88.3
2019-03-02T11:49:14.798Z,88.3
2019-03-02T11:50:15.704Z,88.5
2019-03-02T11:51:14.165Z,88.3
2019-03-02T11:52:14.453Z,88.5
2019-03-02T11:53:17.056Z,88.6
2019-03-02T11:54:14.374Z,88.8
2019-03-02T11:55:14.651Z,88.7
2019-03-02T11:56:27.224Z,88.8
2019-03-02T11:57:21.085Z,89.3
2019-03-02T11:58:14.516Z,89.1
2019-03-02T11:59:14.787Z,89.0
2019-03-02T12:00:14.075Z,88.8
2019-03-02T12:01:14.178Z,88.8
2019-03-02T12:02:19.889Z,88.9
2019-03-02T12:03:14.331Z,88.9
2019-03-02T12:04:16.362Z,89.0
2019-03-02T12:05:14.628Z,89.2
2019-03-02T12:06:14.890Z,89.1
2019-03-02T12:07:14.158Z,88.8
2019-03-02T12:08:21.875Z,88.8
2019-03-02T12:09:14.263Z,88.8
2019-03-02T12:10:14.546Z,88.9
2019-03-02T12:11:14.613Z,89.0
2019-03-02T12:12:14.882Z,88.9
2019-03-02T12:13:14.161Z,88.8
2019-03-02T12:14:14.445Z,88.7
2019-03-02T12:15:14.710Z,88.9
2019-03-02T12:16:14.980Z,89.2
2019-03-02T12:17:14.244Z,88.8
2019-03-02T12:18:19.486Z,88.6
2019-03-02T12:19:14.846Z,88.6
2019-03-02T12:20:14.476Z,88.9
2019-03-02T12:21:14.184Z,88.6
2019-03-02T12:22:14.443Z,88.7
2019-03-02T12:23:14.702Z,88.6
2019-03-02T12:24:19.084Z,88.3
2019-03-02T12:25:14.293Z,88.5
2019-03-02T12:26:14.552Z,88.0
2019-03-02T12:27:14.812Z,88.0
2019-03-02T12:28:14.069Z,88.0
2019-03-02T12:29:15.007Z,88.2
2019-03-02T12:30:14.279Z,88.1
2019-03-02T12:31:14.345Z,88.0
2019-03-02T12:32:14.609Z,88.2
2019-03-02T12:33:20.443Z,88.2
2019-03-02T12:34:14.080Z,87.8
2019-03-02T12:35:14.343Z,87.6
2019-03-02T12:36:17.241Z,87.8
2019-03-02T12:37:14.531Z,87.8
2019-03-02T12:38:14.793Z,88.3
2019-03-02T12:39:14.062Z,88.1
2019-03-02T12:40:14.377Z,87.8
2019-03-02T12:41:16.635Z,87.9
2019-03-02T12:42:14.984Z,87.8
2019-03-02T12:43:14.287Z,88.0
2019-03-02T12:44:21.187Z,87.8
2019-03-02T12:45:14.521Z,87.6
2019-03-02T12:46:17.057Z,87.5
2019-03-02T12:47:14.343Z,87.7
2019-03-02T12:48:14.607Z,87.5
2019-03-02T12:49:14.864Z,87.4
2019-03-02T12:50:14.128Z,87.6
2019-03-02T12:51:14.213Z,87.7
2019-03-02T12:52:16.618Z,87.8
2019-03-02T12:53:16.284Z,87.8
2019-03-02T12:54:14.563Z,87.6
2019-03-02T12:55:20.358Z,87.6
2019-03-02T12:56:14.745Z,87.4
2019-03-02T12:57:15.014Z,87.5
2019-03-02T12:58:14.290Z,87.1
2019-03-02T12:59:14.558Z,87.2
2019-03-02T13:00:14.849Z,87.3
2019-03-02T13:01:14.903Z,87.5
2019-03-02T13:02:15.364Z,87.7
2019-03-02T13:03:14.639Z,87.6
2019-03-02T13:04:14.899Z,88.0
2019-03-02T13:05:14.175Z,87.3
2019-03-02T13:06:14.440Z,87.3
2019-03-02T13:07:15.655Z,87.2
2019-03-02T13:08:15.470Z,87.5
2019-03-02T13:09:14.751Z,87.4
2019-03-02T13:10:16.069Z,87.2
2019-03-02T13:11:14.177Z,87.2
2019-03-02T13:12:14.443Z,87.2
2019-03-02T13:13:20.586Z,87.2
2019-03-02T13:14:14.965Z,87.3
2019-03-02T13:15:17.718Z,87.3
2019-03-02T13:16:15.000Z,87.4
2019-03-02T13:17:14.281Z,87.6
2019-03-02T13:18:15.583Z,87.4